Time;durP1;ratioP1;P1;durP2;ratioP2;P2;SDS_P1;SDS_P2;PMS_P1;PMS_P2;Temp;Humidity;BMP_temperature;BMP_pressure;BME280_temperature;BME280_humidity;BME280_pressure;Samples;Min_cycle;Max_cycle;Signal;HPM_P1;HPM_P2
2022/06/04 00:00:42;;;;;;;7.97;4.17;;;17.80;27.00;;;;;;5097726;28;20468;-76
2022/06/04 00:03:08;;;;;;;5.40;4.03;;;17.80;26.90;;;;;;5098284;28;20364;-76
2022/06/04 00:05:38;;;;;;;4.50;4.10;;;17.80;27.10;;;;;;5097935;28;20403;-76
2022/06/04 00:08:05;;;;;;;6.03;4.05;;;17.80;27.30;;;;;;5098172;28;20367;-77
2022/06/04 00:16:05;;;;;;;5.70;4.15;;;17.70;27.80;;;;;;5089993;28;20466;-78
2022/06/04 00:18:31;;;;;;;5.20;4.10;;;17.60;28.20;;;;;;5087849;28;20388;-77
2022/06/04 00:20:57;;;;;;;6.30;4.33;;;17.50;28.40;;;;;;5090103;28;20406;-78
2022/06/04 00:23:23;;;;;;;6.25;4.40;;;17.50;28.50;;;;;;5092043;28;20388;-78
2022/06/04 00:25:53;;;;;;;9.35;4.18;;;17.40;28.80;;;;;;5087253;28;20431;-77
2022/06/04 00:28:21;;;;;;;5.72;4.60;;;17.40;29.10;;;;;;5075631;28;20380;-79
2022/06/04 00:30:47;;;;;;;7.60;4.35;;;17.40;29.40;;;;;;5077881;28;20404;-81
2022/06/04 00:33:13;;;;;;;4.38;3.97;;;17.30;30.00;;;;;;5078025;28;20399;-79
2022/06/04 00:35:40;;;;;;;6.55;4.40;;;17.20;30.40;;;;;;5078394;28;20418;-81
2022/06/04 00:38:07;;;;;;;6.13;4.18;;;17.20;30.50;;;;;;5077988;28;20398;-81
2022/06/04 00:40:41;;;;;;;6.78;4.15;;;17.00;31.10;;;;;;5077184;28;20828;-80
2022/06/04 00:43:06;;;;;;;5.80;4.80;;;17.10;30.90;;;;;;5080693;28;20394;-81
2022/06/04 00:45:32;;;;;;;9.57;4.50;;;17.10;30.90;;;;;;5079039;28;20399;-78
2022/06/04 00:47:59;;;;;;;6.27;4.20;;;17.10;30.90;;;;;;5079303;28;20379;-79
2022/06/04 00:50:27;;;;;;;12.15;4.80;;;17.10;31.10;;;;;;5078724;28;20388;-80
2022/06/04 00:52:54;;;;;;;8.00;4.15;;;16.90;31.80;;;;;;5059735;28;20407;-80
2022/06/04 00:55:21;;;;;;;7.88;4.50;;;17.00;31.60;;;;;;5079595;28;20383;-81
2022/06/04 00:58:12;;;;;;;7.30;3.97;;;17.00;31.20;;;;;;5078426;28;20387;-79
2022/06/04 01:00:52;;;;;;;8.97;4.33;;;17.00;31.50;;;;;;5076949;28;20390;-79
2022/06/04 01:03:42;;;;;;;9.23;4.80;;;17.00;31.30;;;;;;5079411;28;20872;-80
2022/06/04 01:06:13;;;;;;;8.10;4.70;;;17.00;31.40;;;;;;5076397;28;20422;-83
2022/06/04 01:08:58;;;;;;;7.63;4.30;;;16.90;31.50;;;;;;5078785;28;20379;-78
2022/06/04 01:14:47;;;;;;;6.93;4.80;;;16.80;32.10;;;;;;5086484;28;20372;-79
2022/06/04 01:17:49;;;;;;;7.30;4.80;;;16.80;32.00;;;;;;5081539;28;20387;-79
2022/06/04 01:20:37;;;;;;;8.60;4.60;;;16.80;31.80;;;;;;5009354;28;20423;-80
2022/06/04 01:23:08;;;;;;;6.75;4.35;;;16.80;31.90;;;;;;5074086;28;20376;-80
2022/06/04 01:26:10;;;;;;;6.20;4.33;;;16.80;31.70;;;;;;5079342;28;20478;-80
2022/06/04 01:28:44;;;;;;;8.45;4.38;;;16.80;31.60;;;;;;5082175;28;20912;-80
2022/06/04 01:31:13;;;;;;;8.90;4.63;;;16.80;31.60;;;;;;5079897;28;20376;-81
2022/06/04 01:33:44;;;;;;;6.50;4.05;;;16.80;31.70;;;;;;5081546;28;20427;-80
2022/06/04 01:36:22;;;;;;;9.98;4.00;;;16.70;31.80;;;;;;5062411;28;20404;-81
2022/06/04 01:39:05;;;;;;;11.02;4.55;;;16.70;32.00;;;;;;5065084;28;20470;-79
2022/06/04 01:41:56;;;;;;;10.98;5.03;;;16.70;31.90;;;;;;5064804;28;20401;-77
2022/06/04 01:44:32;;;;;;;4.75;4.30;;;16.70;32.10;;;;;;5089467;28;20410;-77
2022/06/04 01:47:04;;;;;;;10.77;4.87;;;16.70;32.20;;;;;;5085938;28;20483;-78
2022/06/04 01:49:42;;;;;;;6.03;4.60;;;16.60;32.50;;;;;;5087539;28;20391;-77
2022/06/04 01:52:28;;;;;;;6.30;4.70;;;16.60;32.30;;;;;;5088316;28;20407;-76
2022/06/04 01:55:16;;;;;;;7.90;4.85;;;16.50;33.20;;;;;;5086517;28;20384;-77
2022/06/04 01:57:49;;;;;;;8.73;4.90;;;16.50;33.10;;;;;;5089097;28;20414;-77
2022/06/04 02:00:23;;;;;;;7.50;4.53;;;16.50;33.40;;;;;;5081445;28;20445;-78
2022/06/04 02:03:12;;;;;;;7.13;4.80;;;16.60;33.30;;;;;;5087196;28;20395;-81
2022/06/04 02:05:44;;;;;;;7.43;4.68;;;16.60;33.40;;;;;;5075004;28;20407;-81
2022/06/04 02:08:13;;;;;;;9.35;4.65;;;16.50;33.90;;;;;;5076758;28;20375;-81
2022/06/04 02:10:53;;;;;;;7.60;4.85;;;16.50;34.10;;;;;;5076192;28;20725;-80
2022/06/04 02:13:19;;;;;;;11.25;4.70;;;16.40;34.40;;;;;;5075858;28;20710;-81
2022/06/04 02:16:01;;;;;;;7.82;4.80;;;16.50;34.30;;;;;;5075318;28;20418;-79
2022/06/04 02:18:27;;;;;;;7.50;5.23;;;16.60;34.10;;;;;;5079090;28;20496;-80
2022/06/04 02:20:53;;;;;;;9.03;5.00;;;16.40;34.50;;;;;;5084410;28;20439;-80
2022/06/04 02:23:19;;;;;;;9.30;4.90;;;16.30;35.50;;;;;;5064658;28;20393;-78
2022/06/04 02:25:46;;;;;;;8.82;5.00;;;16.40;35.00;;;;;;5085965;28;20427;-77
2022/06/04 02:28:11;;;;;;;6.90;5.00;;;16.50;34.50;;;;;;5087332;28;20420;-77
2022/06/04 02:30:51;;;;;;;8.90;5.03;;;16.50;34.40;;;;;;5086418;28;20394;-79
2022/06/04 02:33:22;;;;;;;12.75;5.60;;;16.50;34.70;;;;;;5069960;28;20388;-77
2022/06/04 02:36:02;;;;;;;10.55;5.57;;;16.50;34.80;;;;;;5083674;28;20399;-80
2022/06/04 02:38:40;;;;;;;6.53;5.10;;;16.40;35.20;;;;;;5077359;28;20872;-78
2022/06/04 02:41:24;;;;;;;8.90;5.78;;;16.40;35.70;;;;;;5079465;28;20752;-78
2022/06/04 02:44:00;;;;;;;9.00;5.70;;;16.30;35.80;;;;;;5077182;28;20408;-77
2022/06/04 02:46:41;;;;;;;11.20;5.60;;;16.40;36.40;;;;;;5078910;28;20433;-77
2022/06/04 02:49:24;;;;;;;11.95;6.00;;;16.30;36.00;;;;;;5079105;28;20380;-78
2022/06/04 02:51:54;;;;;;;14.98;6.03;;;16.30;36.20;;;;;;5085957;28;20455;-76
2022/06/04 02:54:25;;;;;;;9.40;5.88;;;16.30;36.20;;;;;;5070157;28;20439;-77
2022/06/04 02:56:53;;;;;;;10.07;6.10;;;16.30;36.50;;;;;;5057422;28;20478;-77
2022/06/04 02:59:21;;;;;;;14.18;6.32;;;16.30;36.40;;;;;;5077390;28;20387;-81
2022/06/04 03:01:50;;;;;;;9.07;5.70;;;16.20;36.70;;;;;;5076352;28;20756;-82
2022/06/04 03:04:16;;;;;;;5.90;5.30;;;16.20;36.70;;;;;;5074997;28;20546;-83
2022/06/04 03:06:42;;;;;;;8.27;5.80;;;16.30;36.90;;;;;;5076981;28;20480;-79
2022/06/04 03:09:12;;;;;;;8.93;5.90;;;16.20;37.00;;;;;;5073750;28;20907;-83
2022/06/04 03:11:43;;;;;;;8.20;6.10;;;16.20;37.00;;;;;;5080620;28;20386;-78
2022/06/04 03:14:09;;;;;;;9.43;6.10;;;16.30;36.80;;;;;;5078757;28;20395;-81
2022/06/04 03:16:36;;;;;;;10.95;6.38;;;16.20;36.70;;;;;;5075683;28;20384;-80
2022/06/04 03:19:04;;;;;;;8.38;6.07;;;16.20;37.10;;;;;;5079396;28;20410;-81
2022/06/04 03:21:29;;;;;;;12.55;6.13;;;16.20;37.20;;;;;;5078732;28;20430;-81
2022/06/04 03:23:55;;;;;;;10.33;6.50;;;16.10;37.50;;;;;;5071875;28;20405;-81
2022/06/04 03:26:21;;;;;;;10.07;6.40;;;16.20;37.10;;;;;;5068364;28;20420;-80
2022/06/04 03:28:46;;;;;;;7.85;6.05;;;16.10;37.40;;;;;;5078177;28;20835;-82
2022/06/04 03:31:12;;;;;;;10.68;6.47;;;16.10;37.30;;;;;;5077694;28;20376;-79
2022/06/04 03:33:37;;;;;;;10.53;6.07;;;16.10;37.40;;;;;;5080329;28;20406;-81
2022/06/04 03:36:04;;;;;;;8.00;5.70;;;16.10;37.30;;;;;;5091199;28;20402;-78
2022/06/04 03:38:30;;;;;;;8.10;6.37;;;16.10;37.40;;;;;;5082278;28;20392;-80
2022/06/04 03:40:56;;;;;;;8.60;6.40;;;16.10;37.60;;;;;;5083549;28;20395;-80
2022/06/04 03:43:21;;;;;;;8.40;6.17;;;16.10;37.20;;;;;;5081062;28;20414;-80
2022/06/04 03:45:47;;;;;;;11.27;6.60;;;16.10;37.20;;;;;;5081885;28;20399;-82
2022/06/04 03:48:12;;;;;;;7.47;6.10;;;16.10;37.30;;;;;;5082741;28;20470;-82
2022/06/04 03:50:38;;;;;;;12.35;6.60;;;16.00;37.60;;;;;;5081724;28;20403;-81
2022/06/04 03:53:04;;;;;;;9.88;6.68;;;16.10;37.40;;;;;;5082503;28;20426;-80
2022/06/04 03:55:30;;;;;;;8.15;6.40;;;16.10;37.40;;;;;;5073485;28;20435;-82
2022/06/04 03:57:55;;;;;;;10.43;6.32;;;16.00;37.70;;;;;;5083310;28;20399;-81
2022/06/04 04:00:21;;;;;;;10.07;6.07;;;16.00;38.10;;;;;;5078889;28;20375;-80
2022/06/04 04:02:53;;;;;;;12.43;6.30;;;16.00;37.80;;;;;;5082079;28;20963;-81
2022/06/04 04:05:22;;;;;;;10.48;6.28;;;16.10;37.30;;;;;;5062679;28;20447;-77
2022/06/04 04:07:49;;;;;;;10.02;6.90;;;16.10;37.00;;;;;;5089551;28;20413;-80
2022/06/04 04:10:15;;;;;;;9.95;6.43;;;16.10;37.30;;;;;;5081275;28;20868;-82
2022/06/04 04:12:41;;;;;;;10.50;6.32;;;16.10;37.60;;;;;;5065039;28;20403;-79
2022/06/04 04:15:08;;;;;;;10.05;6.35;;;16.10;37.40;;;;;;5085512;28;20380;-81
2022/06/04 04:17:36;;;;;;;9.80;6.07;;;16.10;37.60;;;;;;5083368;28;20395;-82
2022/06/04 04:20:04;;;;;;;7.43;6.03;;;16.10;37.70;;;;;;5086401;28;20475;-79
2022/06/04 04:22:30;;;;;;;11.50;6.17;;;16.00;37.30;;;;;;5081884;28;20463;-82
2022/06/04 04:24:56;;;;;;;8.20;6.10;;;16.10;37.20;;;;;;5081700;28;20513;-82
2022/06/04 04:27:21;;;;;;;8.43;6.10;;;16.00;37.40;;;;;;5061447;28;20380;-80
2022/06/04 04:29:47;;;;;;;8.68;6.60;;;16.10;37.50;;;;;;5077743;28;20490;-80
2022/06/04 04:32:12;;;;;;;7.77;6.77;;;16.10;37.20;;;;;;5066759;28;20435;-80
2022/06/04 04:34:38;;;;;;;12.68;6.38;;;16.10;37.50;;;;;;5059820;28;20944;-82
2022/06/04 04:37:04;;;;;;;10.23;6.20;;;16.20;37.00;;;;;;5078115;28;20721;-81
2022/06/04 04:39:29;;;;;;;8.50;5.93;;;16.20;36.60;;;;;;5080137;28;20396;-82
2022/06/04 04:41:55;;;;;;;12.10;6.83;;;16.20;36.60;;;;;;5091370;28;20408;-79
2022/06/04 04:44:21;;;;;;;6.53;5.80;;;16.20;36.90;;;;;;5080916;28;20565;-80
2022/06/04 04:46:50;;;;;;;8.00;6.00;;;16.20;36.60;;;;;;5040566;28;20397;-80
2022/06/04 04:49:15;;;;;;;7.45;5.88;;;16.30;36.20;;;;;;5059101;28;20885;-76
2022/06/04 04:51:41;;;;;;;7.83;6.07;;;16.40;36.00;;;;;;5079455;28;20421;-80
2022/06/04 04:54:06;;;;;;;8.93;6.00;;;16.40;35.90;;;;;;5073019;28;20884;-79
2022/06/04 04:56:38;;;;;;;7.87;6.30;;;16.50;36.30;;;;;;5079224;28;20400;-79
2022/06/04 04:59:04;;;;;;;10.70;6.70;;;16.50;35.50;;;;;;5062296;28;20396;-79
2022/06/04 05:01:29;;;;;;;11.67;6.90;;;16.50;35.50;;;;;;5080644;28;20451;-76
2022/06/04 05:03:56;;;;;;;7.80;6.70;;;16.40;35.90;;;;;;5080982;28;20424;-78
2022/06/04 05:06:22;;;;;;;9.13;6.03;;;16.50;35.10;;;;;;5082225;28;20918;-79
2022/06/04 05:08:52;;;;;;;8.43;6.00;;;16.60;34.90;;;;;;5080232;28;20408;-79
2022/06/04 05:11:21;;;;;;;10.07;6.53;;;16.70;35.00;;;;;;5072574;28;20430;-79
2022/06/04 05:13:49;;;;;;;8.98;6.35;;;16.80;34.20;;;;;;5079933;28;20433;-80
2022/06/04 05:16:16;;;;;;;10.20;6.53;;;17.00;34.00;;;;;;5084184;28;20388;-80
2022/06/04 05:18:42;;;;;;;9.88;6.72;;;17.00;32.90;;;;;;5065604;28;20781;-77
2022/06/04 05:21:15;;;;;;;8.55;6.13;;;16.90;34.00;;;;;;5081825;28;20399;-78
2022/06/04 05:23:40;;;;;;;9.13;6.35;;;17.10;33.80;;;;;;5082629;28;20431;-79
2022/06/04 05:26:06;;;;;;;10.45;6.53;;;17.10;33.20;;;;;;5083532;28;20457;-80
2022/06/04 05:28:31;;;;;;;6.67;6.07;;;17.10;32.90;;;;;;5082457;28;20459;-78
2022/06/04 05:30:57;;;;;;;8.90;6.23;;;17.10;32.90;;;;;;5089879;28;20396;-79
2022/06/04 05:33:23;;;;;;;9.80;6.23;;;17.10;33.60;;;;;;5083000;28;20409;-77
2022/06/04 05:35:48;;;;;;;8.17;5.97;;;17.10;33.20;;;;;;5092702;28;20403;-76
2022/06/04 05:38:14;;;;;;;7.25;6.00;;;17.30;33.30;;;;;;5094231;28;20380;-78
2022/06/04 05:40:41;;;;;;;14.80;6.77;;;17.30;33.10;;;;;;5083403;28;20415;-78
2022/06/04 05:43:06;;;;;;;10.75;6.70;;;17.30;32.60;;;;;;5069967;28;20411;-76
2022/06/04 05:45:32;;;;;;;14.67;6.70;;;17.50;32.30;;;;;;5072903;28;20475;-78
2022/06/04 05:48:01;;;;;;;11.20;6.28;;;17.70;31.00;;;;;;5082089;28;20422;-78
2022/06/04 05:50:27;;;;;;;12.17;6.60;;;17.70;30.80;;;;;;5079982;28;20511;-78
2022/06/04 05:52:52;;;;;;;9.93;6.40;;;17.80;31.20;;;;;;5078764;28;20399;-76
2022/06/04 05:55:18;;;;;;;9.55;6.18;;;17.90;30.70;;;;;;5087298;28;20816;-77
2022/06/04 05:57:44;;;;;;;10.55;6.30;;;18.10;29.90;;;;;;5083727;28;20445;-76
2022/06/04 06:00:10;;;;;;;9.05;6.45;;;18.30;30.00;;;;;;5083386;28;20392;-77
2022/06/04 06:02:37;;;;;;;7.78;6.45;;;18.30;29.20;;;;;;5063688;28;20407;-75
2022/06/04 06:05:04;;;;;;;10.75;5.97;;;18.40;28.70;;;;;;5069883;28;20407;-77
2022/06/04 06:07:30;;;;;;;7.88;6.22;;;18.50;28.80;;;;;;5069659;28;20403;-77
2022/06/04 06:09:56;;;;;;;6.93;6.20;;;18.70;27.40;;;;;;5087589;28;20400;-80
2022/06/04 06:12:22;;;;;;;11.00;6.60;;;18.60;27.50;;;;;;5080550;28;20479;-76
2022/06/04 06:14:48;;;;;;;9.88;6.32;;;18.50;27.90;;;;;;5077591;28;20460;-76
2022/06/04 06:17:14;;;;;;;8.52;6.57;;;18.30;28.50;;;;;;5082984;28;20463;-77
2022/06/04 06:19:40;;;;;;;11.35;7.00;;;18.50;28.60;;;;;;5082943;28;20415;-78
2022/06/04 06:22:05;;;;;;;12.10;6.18;;;18.40;28.40;;;;;;5084849;28;20407;-79
2022/06/04 06:24:31;;;;;;;10.52;6.68;;;18.50;28.10;;;;;;5080666;28;20404;-83
2022/06/04 06:26:58;;;;;;;8.63;6.53;;;18.50;28.00;;;;;;5065368;28;20417;-79
2022/06/04 06:29:28;;;;;;;8.52;6.45;;;18.60;28.20;;;;;;5068353;28;20500;-76
2022/06/04 06:32:03;;;;;;;7.55;6.30;;;18.80;27.70;;;;;;5074579;28;20415;-77
2022/06/04 06:34:29;;;;;;;9.95;6.60;;;18.90;27.10;;;;;;5072985;28;20503;-77
2022/06/04 06:36:56;;;;;;;13.80;6.30;;;18.90;26.60;;;;;;5079034;28;20412;-77
2022/06/04 06:39:22;;;;;;;9.90;6.83;;;19.00;27.20;;;;;;5078057;28;20486;-79
2022/06/04 06:41:48;;;;;;;8.80;6.00;;;19.30;26.80;;;;;;5068354;28;20448;-77
2022/06/04 06:44:14;;;;;;;9.45;6.88;;;19.30;25.40;;;;;;5072213;28;20479;-77
2022/06/04 06:46:44;;;;;;;9.77;6.40;;;19.30;26.10;;;;;;5063777;28;20435;-77
2022/06/04 06:49:11;;;;;;;10.25;6.47;;;19.40;25.80;;;;;;5083207;28;20422;-77
2022/06/04 06:51:50;;;;;;;10.97;6.43;;;19.70;25.20;;;;;;5088999;28;20471;-76
2022/06/04 06:54:17;;;;;;;15.60;6.45;;;19.90;25.00;;;;;;5055894;28;20410;-78
2022/06/04 06:56:44;;;;;;;8.20;5.90;;;20.10;24.70;;;;;;5068772;28;20409;-76
2022/06/04 06:59:10;;;;;;;7.05;5.80;;;20.30;23.40;;;;;;5060349;28;20412;-78
2022/06/04 07:01:37;;;;;;;10.90;6.20;;;20.50;23.10;;;;;;5073411;28;20407;-77
2022/06/04 07:04:05;;;;;;;10.90;5.95;;;20.70;22.70;;;;;;5061440;28;20417;-77
2022/06/04 07:06:40;;;;;;;10.75;6.30;;;20.90;21.90;;;;;;5062308;28;20411;-79
2022/06/04 07:09:14;;;;;;;8.13;6.60;;;21.00;21.20;;;;;;5087725;28;20465;-76
2022/06/04 07:11:40;;;;;;;11.47;6.07;;;21.00;21.90;;;;;;5087720;28;20396;-76
2022/06/04 07:14:06;;;;;;;9.50;6.10;;;21.10;21.60;;;;;;5064876;28;20423;-77
2022/06/04 07:16:32;;;;;;;8.27;6.20;;;21.10;20.70;;;;;;5060679;28;20392;-77
2022/06/04 07:18:57;;;;;;;17.97;7.07;;;21.10;20.70;;;;;;5078149;28;20403;-75
2022/06/04 07:21:23;;;;;;;9.83;6.30;;;21.00;20.80;;;;;;5076927;28;20453;-77
2022/06/04 07:23:48;;;;;;;13.57;6.88;;;20.90;21.40;;;;;;5051801;28;20490;-76
2022/06/04 07:26:14;;;;;;;10.80;6.13;;;20.90;21.70;;;;;;5074279;28;20764;-76
2022/06/04 07:28:40;;;;;;;6.45;5.82;;;21.20;21.40;;;;;;5070887;28;20949;-75
2022/06/04 07:31:08;;;;;;;7.50;6.10;;;21.50;20.20;;;;;;5078808;28;20411;-78
2022/06/04 07:33:34;;;;;;;6.97;5.80;;;21.50;20.00;;;;;;5076719;28;20399;-78
2022/06/04 07:36:00;;;;;;;9.10;6.20;;;21.50;20.80;;;;;;5077412;28;20414;-79
2022/06/04 07:38:26;;;;;;;8.98;6.60;;;21.70;19.90;;;;;;5074250;28;20407;-77
2022/06/04 07:40:51;;;;;;;9.35;5.75;;;21.60;19.90;;;;;;5073152;28;20841;-76
2022/06/04 07:43:17;;;;;;;8.37;6.70;;;21.60;20.00;;;;;;5074839;28;20411;-76
2022/06/04 07:45:43;;;;;;;7.20;6.50;;;21.60;20.00;;;;;;5074483;28;20805;-77
2022/06/04 07:48:09;;;;;;;10.55;6.63;;;21.10;21.00;;;;;;5079526;28;20391;-77
2022/06/04 07:50:37;;;;;;;9.00;6.80;;;20.60;22.10;;;;;;5072979;28;20410;-77
2022/06/04 07:53:03;;;;;;;11.98;6.22;;;20.30;23.20;;;;;;5076624;28;20437;-78
2022/06/04 07:55:29;;;;;;;9.67;6.53;;;20.30;23.70;;;;;;5076820;28;20706;-76
2022/06/04 07:57:56;;;;;;;8.88;6.70;;;20.40;22.90;;;;;;5073662;28;20430;-77
2022/06/04 08:00:24;;;;;;;10.85;6.53;;;20.60;22.60;;;;;;5072292;28;20884;-77
2022/06/04 08:02:52;;;;;;;7.50;6.40;;;20.90;21.80;;;;;;5073664;28;20569;-79
2022/06/04 08:05:18;;;;;;;9.02;6.30;;;21.10;21.90;;;;;;5067804;28;20456;-77
2022/06/04 08:07:44;;;;;;;8.35;6.53;;;21.60;20.50;;;;;;5057394;28;20476;-78
2022/06/04 08:10:11;;;;;;;8.95;5.80;;;21.60;19.90;;;;;;5079000;28;20396;-79
2022/06/04 08:12:42;;;;;;;9.52;6.13;;;21.50;20.00;;;;;;5074562;28;20396;-79
2022/06/04 08:15:08;;;;;;;12.20;7.13;;;21.10;20.30;;;;;;5075849;28;20410;-81
2022/06/04 08:17:33;;;;;;;13.32;7.03;;;20.80;21.90;;;;;;5073476;28;20435;-79
2022/06/04 08:19:59;;;;;;;9.68;6.20;;;20.90;21.90;;;;;;5078345;28;20434;-81
2022/06/04 08:22:25;;;;;;;10.07;6.95;;;21.10;21.90;;;;;;5070686;28;20413;-74
2022/06/04 08:24:50;;;;;;;11.13;6.80;;;21.30;21.50;;;;;;5071248;28;20412;-75
2022/06/04 08:27:17;;;;;;;7.90;6.70;;;21.50;20.60;;;;;;5073414;28;20495;-78
2022/06/04 08:29:44;;;;;;;7.60;6.03;;;21.70;19.90;;;;;;5076579;28;20404;-77
2022/06/04 08:32:10;;;;;;;7.90;5.90;;;22.00;19.70;;;;;;5052552;28;20395;-80
2022/06/04 08:34:35;;;;;;;6.20;5.60;;;22.30;18.80;;;;;;5062304;28;20410;-78
2022/06/04 08:37:01;;;;;;;8.83;5.97;;;22.50;18.90;;;;;;5058040;28;20401;-79
2022/06/04 08:39:28;;;;;;;8.50;6.50;;;22.60;18.40;;;;;;5069513;28;20416;-75
2022/06/04 08:42:13;;;;;;;7.63;6.32;;;22.70;18.50;;;;;;5060127;28;20403;-77
2022/06/04 08:44:45;;;;;;;9.25;6.22;;;22.70;18.20;;;;;;5062885;28;20434;-77
2022/06/04 08:47:16;;;;;;;8.82;6.10;;;23.10;17.50;;;;;;5076296;28;20915;-76
2022/06/04 08:50:02;;;;;;;11.93;6.00;;;23.20;17.50;;;;;;5076390;28;20407;-77
2022/06/04 08:52:38;;;;;;;13.02;6.18;;;23.20;17.00;;;;;;5078291;28;20453;-77
2022/06/04 08:58:21;;;;;;;7.03;5.80;;;23.30;17.00;;;;;;5079469;28;20387;-76
2022/06/04 09:00:54;;;;;;;10.32;7.20;;;23.20;17.20;;;;;;5080496;28;20376;-75
2022/06/04 09:03:30;;;;;;;9.85;6.53;;;23.10;17.30;;;;;;5073760;28;20411;-77
2022/06/04 09:06:13;;;;;;;8.65;6.60;;;23.00;17.20;;;;;;5074806;28;20764;-76
2022/06/04 09:08:54;;;;;;;9.68;6.70;;;22.90;17.80;;;;;;5080042;28;20411;-75
2022/06/04 09:11:26;;;;;;;10.45;7.28;;;22.90;17.90;;;;;;5083871;28;20376;-77
2022/06/04 09:14:00;;;;;;;8.27;6.40;;;22.80;18.30;;;;;;5079352;28;20399;-78
2022/06/04 09:16:31;;;;;;;11.00;6.80;;;22.80;18.30;;;;;;5079723;28;20510;-77
2022/06/04 09:19:00;;;;;;;9.15;6.90;;;22.70;18.50;;;;;;5069820;28;20397;-79
2022/06/04 09:21:37;;;;;;;10.27;6.85;;;22.70;18.50;;;;;;5063381;28;20479;-76
2022/06/04 09:24:04;;;;;;;8.85;6.60;;;22.70;18.60;;;;;;5071638;28;20438;-78
2022/06/04 09:26:51;;;;;;;9.57;6.82;;;22.80;19.00;;;;;;5077220;28;20461;-77
2022/06/04 09:29:29;;;;;;;11.60;7.80;;;23.00;18.10;;;;;;5062090;28;20458;-76
2022/06/04 09:32:27;;;;;;;14.27;8.93;;;22.90;18.90;;;;;;5073557;28;20794;-76
2022/06/04 09:34:55;;;;;;;10.40;7.40;;;23.10;18.40;;;;;;5086399;28;20396;-77
2022/06/04 09:37:20;;;;;;;9.18;6.47;;;23.30;17.70;;;;;;5079006;28;20408;-77
2022/06/04 09:39:59;;;;;;;10.10;7.27;;;23.30;18.00;;;;;;5073301;28;20925;-76
2022/06/04 09:42:29;;;;;;;9.45;7.00;;;23.20;17.80;;;;;;5077048;28;20427;-78
2022/06/04 09:45:04;;;;;;;7.43;6.72;;;23.10;18.20;;;;;;5078674;28;20404;-78
2022/06/04 09:47:32;;;;;;;7.63;6.70;;;23.10;18.40;;;;;;5076346;28;20395;-77
2022/06/04 09:50:19;;;;;;;9.68;7.30;;;22.80;18.50;;;;;;5075560;28;20513;-76
2022/06/04 09:52:55;;;;;;;11.25;7.20;;;22.90;18.70;;;;;;5075064;28;20448;-77
2022/06/04 09:55:24;;;;;;;10.18;7.60;;;23.00;18.50;;;;;;5063659;28;20422;-78
2022/06/04 09:58:04;;;;;;;8.68;7.18;;;22.90;18.70;;;;;;5075948;28;20772;-77
2022/06/04 10:00:32;;;;;;;10.77;7.05;;;23.00;18.10;;;;;;5080481;28;20384;-77
2022/06/04 10:03:01;;;;;;;15.35;7.18;;;22.90;18.90;;;;;;5085453;28;20402;-77
2022/06/04 10:05:30;;;;;;;10.43;7.78;;;22.70;19.00;;;;;;5085376;28;20403;-77
2022/06/04 10:07:57;;;;;;;10.75;7.65;;;22.80;18.90;;;;;;5070906;28;20411;-77
2022/06/04 10:10:40;;;;;;;9.35;7.75;;;22.70;19.20;;;;;;5076629;28;20375;-77
2022/06/04 10:16:22;;;;;;;11.65;8.10;;;22.80;19.10;;;;;;5074760;28;20800;-77
2022/06/04 10:18:57;;;;;;;15.63;8.57;;;22.40;19.10;;;;;;5064254;28;20390;-78
2022/06/04 10:21:36;;;;;;;9.20;7.70;;;22.30;20.90;;;;;;5056766;28;20384;-76
2022/06/04 10:24:17;;;;;;;13.55;8.20;;;22.60;20.00;;;;;;5069070;28;20412;-79
2022/06/04 10:26:57;;;;;;;9.73;7.73;;;22.80;19.70;;;;;;5070896;28;20478;-77
2022/06/04 10:29:51;;;;;;;12.90;8.38;;;23.00;19.30;;;;;;5068167;28;20392;-84
2022/06/04 10:32:41;;;;;;;12.18;8.40;;;23.10;18.50;;;;;;5075056;28;20413;-83
2022/06/04 10:35:14;;;;;;;9.63;7.85;;;23.30;18.70;;;;;;5067197;28;20435;-77
2022/06/04 10:38:01;;;;;;;9.35;7.75;;;23.30;18.70;;;;;;5067896;28;20400;-78
2022/06/04 10:40:53;;;;;;;9.75;7.72;;;23.70;17.90;;;;;;5064430;28;20403;-76
2022/06/04 10:43:43;;;;;;;7.97;7.15;;;23.80;17.50;;;;;;5069521;28;20403;-77
2022/06/04 10:46:41;;;;;;;8.30;7.37;;;23.80;18.50;;;;;;5046594;28;20550;-79
2022/06/04 10:49:32;;;;;;;10.10;7.50;;;23.80;18.50;;;;;;5067038;28;20390;-77
2022/06/04 10:52:09;;;;;;;12.98;8.10;;;24.00;18.10;;;;;;5079438;28;20477;-76
2022/06/04 10:54:42;;;;;;;9.90;7.60;;;24.00;17.40;;;;;;5075593;28;20396;-77
2022/06/04 10:57:24;;;;;;;11.55;7.53;;;23.90;18.00;;;;;;5081293;28;20387;-77
2022/06/04 11:00:10;;;;;;;9.75;7.00;;;23.90;19.00;;;;;;5082919;28;20397;-80
2022/06/04 11:02:39;;;;;;;9.98;7.60;;;23.90;18.60;;;;;;5083391;28;20418;-77
2022/06/04 11:05:31;;;;;;;12.13;8.00;;;23.80;18.70;;;;;;5079243;28;20407;-77
2022/06/04 11:08:20;;;;;;;9.17;7.50;;;23.80;18.20;;;;;;5048978;28;20437;-77
2022/06/04 11:11:03;;;;;;;13.50;7.88;;;23.70;19.30;;;;;;5069823;28;20412;-78
2022/06/04 11:13:37;;;;;;;11.43;8.75;;;23.80;18.50;;;;;;5051958;28;20407;-77
2022/06/04 11:16:25;;;;;;;10.77;8.88;;;23.80;19.00;;;;;;5053177;28;20411;-77
2022/06/04 11:18:56;;;;;;;12.90;9.45;;;23.80;18.80;;;;;;5069569;28;20435;-78
2022/06/04 11:21:47;;;;;;;10.98;7.80;;;23.80;18.80;;;;;;5069459;28;20564;-77
2022/06/04 11:24:29;;;;;;;10.98;8.60;;;24.20;18.20;;;;;;5059099;28;20411;-77
2022/06/04 11:27:07;;;;;;;11.35;8.60;;;24.20;18.30;;;;;;5073551;28;20475;-77
2022/06/04 11:29:36;;;;;;;13.50;10.48;;;24.30;17.50;;;;;;5069951;28;20478;-76
2022/06/04 11:32:33;;;;;;;11.63;9.68;;;24.30;17.30;;;;;;5076735;28;20888;-77
2022/06/04 11:35:17;;;;;;;13.55;9.60;;;24.60;16.80;;;;;;5061394;28;20890;-77
2022/06/04 11:37:52;;;;;;;12.27;9.00;;;24.50;16.40;;;;;;5077956;28;20399;-76
2022/06/04 11:40:21;;;;;;;11.63;9.70;;;24.60;17.20;;;;;;5079080;28;20411;-76
2022/06/04 11:43:07;;;;;;;13.95;9.82;;;24.50;16.00;;;;;;5084245;28;20407;-78
2022/06/04 11:45:42;;;;;;;11.13;7.88;;;24.60;16.40;;;;;;5088968;28;20574;-81
2022/06/04 11:48:14;;;;;;;13.95;9.50;;;25.00;16.10;;;;;;5093105;28;20489;-82
2022/06/04 11:50:58;;;;;;;9.13;7.75;;;25.00;15.60;;;;;;5069587;28;20401;-81
2022/06/04 11:53:44;;;;;;;8.35;7.43;;;25.50;15.50;;;;;;5079582;28;20391;-80
2022/06/04 11:56:25;;;;;;;8.60;7.32;;;26.00;14.30;;;;;;5079458;28;20405;-81
2022/06/04 11:58:59;;;;;;;9.20;7.68;;;26.40;13.50;;;;;;5078490;28;20439;-79
2022/06/04 12:01:38;;;;;;;14.23;8.30;;;26.60;12.70;;;;;;5081779;28;20425;-79
2022/06/04 12:04:32;;;;;;;11.43;8.18;;;26.30;13.40;;;;;;5059823;28;20461;-80
2022/06/04 12:07:13;;;;;;;8.45;7.20;;;26.00;13.70;;;;;;5080091;28;20399;-78
2022/06/04 12:10:01;;;;;;;9.35;7.60;;;26.20;14.00;;;;;;5085545;28;20424;-77
2022/06/04 12:12:52;;;;;;;12.18;8.38;;;26.50;12.70;;;;;;5085193;28;20426;-78
2022/06/04 12:15:33;;;;;;;11.40;8.65;;;26.80;12.00;;;;;;5083629;28;20396;-80
2022/06/04 12:18:04;;;;;;;12.55;8.20;;;26.90;11.70;;;;;;5064704;28;20403;-77
2022/06/04 12:26:23;;;;;;;8.60;7.30;;;26.60;13.00;;;;;;5076593;28;20427;-79
2022/06/04 12:28:49;;;;;;;9.57;7.57;;;26.90;12.30;;;;;;5079589;28;20407;-81
2022/06/04 12:31:30;;;;;;;11.43;8.38;;;27.00;12.00;;;;;;5083124;28;20582;-81
2022/06/04 12:33:56;;;;;;;10.10;7.32;;;27.10;11.80;;;;;;5087579;28;20400;-82
2022/06/04 12:36:31;;;;;;;8.47;7.63;;;27.10;11.90;;;;;;5091779;28;20459;-81
2022/06/04 12:39:04;;;;;;;8.23;7.15;;;27.10;12.00;;;;;;5071776;28;20399;-80
2022/06/04 12:41:47;;;;;;;20.50;8.13;;;27.10;12.10;;;;;;5061539;28;20404;-82
2022/06/04 12:44:21;;;;;;;12.60;9.60;;;27.10;12.30;;;;;;5077415;28;20399;-81
2022/06/04 12:46:48;;;;;;;9.05;6.88;;;27.10;12.60;;;;;;5081848;28;20453;-82
2022/06/04 13:12:07;;;;;;;;;;;;;;;;;;;;;
2022/06/04 13:15:33;;;;;;;;;;;;;;;;;;;;;
2022/06/04 13:34:35;;;;;;;10.43;5.50;;;27.50;11.00;;;;;;4930257;22;20428;-77
2022/06/04 13:37:07;;;;;;;5.97;5.13;;;28.50;9.60;;;;;;5070478;28;20407;-76
2022/06/04 13:39:36;;;;;;;5.72;5.10;;;29.00;8.60;;;;;;5052774;28;20846;-75
2022/06/04 13:42:14;;;;;;;7.00;4.90;;;29.00;8.20;;;;;;5067533;28;20475;-77
2022/06/04 13:44:42;;;;;;;6.00;5.27;;;29.30;8.90;;;;;;5069684;28;21044;-75
2022/06/04 13:47:23;;;;;;;6.53;4.70;;;29.90;7.50;;;;;;5069699;28;20509;-77
2022/06/04 13:50:05;;;;;;;5.70;4.97;;;30.70;6.70;;;;;;5047460;28;20439;-77
2022/06/04 13:52:56;;;;;;;10.75;5.05;;;30.80;6.00;;;;;;5060819;28;20760;-77
2022/06/04 13:55:30;;;;;;;5.40;4.90;;;31.30;5.60;;;;;;5071495;28;20371;-77
2022/06/04 13:58:00;;;;;;;7.18;5.20;;;31.40;5.30;;;;;;5070823;28;20426;-76
2022/06/04 14:00:30;;;;;;;5.13;4.60;;;31.00;5.30;;;;;;5070680;28;20415;-77
2022/06/04 14:03:19;;;;;;;5.20;4.70;;;30.80;6.40;;;;;;5070995;28;20456;-76
2022/06/04 14:05:47;;;;;;;8.50;4.88;;;31.00;5.60;;;;;;5071953;28;20702;-78
2022/06/04 14:08:13;;;;;;;6.47;4.70;;;31.30;5.50;;;;;;5061864;28;20388;-77
2022/06/04 14:10:39;;;;;;;6.10;4.60;;;31.40;5.60;;;;;;5071187;28;20486;-78